^^
Datos históricos de la estación: Murcia-Puente Tocinos
Diario Informe para Mayo 2, 2019 Unidades:  Ingés    Métrico   Ambas
Diario Semanal Mensual Anual
  Máxima: Mínima: Promedio:
Temperatura: 72.7 °F 57 °F 64.2 °F
Punto de rocio: 54.7 °F 43.5 °F 49.3 °F
Humedad: 83% 37.4% 61%
Velocidad viento: 11.8mph 0mph 5.7mph
Racha viento: 21.3mph - -
Viento- - ESE
Presión: 29.9 in 29.9 in -
Precipitación: 0 in    
 
 
Tabla de datos para Mayo 2, 2019
Hora Temperatura Punto de rocio Presión Viento Velocidad viento Racha viento Humedad Intensidad lluvia(por hora) Nubes
00:04 61.2 °F 54.7 °F 29.9 in NE 3.1 mph 5.2 mph 79% 0 in
00:09 61.2 °F 54.7 °F 29.9 in NE 2.8 mph 5 mph 79% 0 in
00:14 61.2 °F 54.7 °F 29.9 in NE 2 mph 5 mph 79% 0 in
00:19 61.2 °F 54.7 °F 29.9 in NE 2 mph 5 mph 79% 0 in
00:24 61.2 °F 54.7 °F 29.9 in NE 2 mph 5 mph 79% 0 in
00:29 61.2 °F 54.7 °F 29.9 in NE 2 mph 5 mph 79% 0 in
00:34 61.2 °F 54.7 °F 29.9 in NE 2 mph 3.6 mph 79% 0 in
00:39 61.3 °F 54.7 °F 29.9 in ESE 1.9 mph 4.6 mph 78.9% 0 in
00:44 61.3 °F 54.3 °F 29.9 in Sur 1.8 mph 5.2 mph 78% 0 in
00:49 61.3 °F 54.3 °F 29.9 in Sur 2.2 mph 5.2 mph 78% 0 in
00:54 61.3 °F 54.3 °F 29.9 in SSO 3.1 mph 5.2 mph 78% 0 in
00:59 61.3 °F 54.3 °F 29.9 in SSO 3.1 mph 5.8 mph 78% 0 in
01:04 61.3 °F 54.3 °F 29.9 in Sur 3.1 mph 6 mph 78% 0 in
01:09 61.3 °F 54.5 °F 29.9 in Sur 3.3 mph 7.4 mph 78% 0 in
01:14 61.5 °F 54.3 °F 29.9 in SSO 3.6 mph 7 mph 77.2% 0 in
01:19 61.5 °F 54.1 °F 29.9 in SSO 3.2 mph 6 mph 77% 0 in
01:24 61.3 °F 54.3 °F 29.9 in SO 2.4 mph 3 mph 77.6% 0 in
01:29 61.2 °F 54.5 °F 29.9 in ONO 2 mph 4.7 mph 78.4% 0 in
01:34 61 °F 54.5 °F 29.9 in NNO 1.4 mph 5 mph 79% 0 in
01:39 60.6 °F 54.5 °F 29.9 in NNE 1.6 mph 5 mph 80% 0 in
01:44 60.4 °F 54.5 °F 29.9 in NNE 2 mph 5 mph 80.5% 0 in
01:49 60.4 °F 54.7 °F 29.9 in NNE 1.8 mph 4.6 mph 81% 0 in
01:54 60.4 °F 54.5 °F 29.9 in NNE 1.4 mph 5 mph 81% 0 in
01:59 60.3 °F 54.3 °F 29.9 in NE 2.1 mph 5 mph 80.6% 0 in
02:04 60.1 °F 53.6 °F 29.9 in ENE 2.9 mph 5 mph 79.2% 0 in
02:09 59.7 °F 52.7 °F 29.9 in NE 2.7 mph 5 mph 77.7% 0 in
02:14 59.5 °F 52.5 °F 29.9 in ENE 2.4 mph 5.2 mph 77.3% 0 in
02:19 59.5 °F 52.7 °F 29.9 in NE 2.4 mph 5.8 mph 78% 0 in
02:24 59.5 °F 52.7 °F 29.9 in NE 2.4 mph 6 mph 78% 0 in
02:29 59.5 °F 53.1 °F 29.9 in NE 2.7 mph 5.8 mph 78.8% 0 in
02:34 59.7 °F 53.2 °F 29.9 in NE 3.1 mph 6 mph 79% 0 in
02:39 59.7 °F 53.2 °F 29.9 in ENE 3 mph 5.2 mph 79% 0 in
02:44 59.7 °F 53.2 °F 29.9 in ENE 2.9 mph 5.2 mph 79.5% 0 in
02:49 59.5 °F 53.6 °F 29.9 in NE 3 mph 5.2 mph 80.4% 0 in
02:54 59.5 °F 53.8 °F 29.9 in ENE 3.1 mph 5 mph 81% 0 in
02:59 59.5 °F 53.8 °F 29.9 in ENE 1.6 mph 2 mph 81% 0 in
03:04 59.4 °F 53.6 °F 29.9 in Calm     81.1% 0 in
03:09 59.4 °F 53.4 °F 29.9 in Calm     81% 0 in
03:14 59.2 °F 53.2 °F 29.9 in Calm   4.6 mph 80.6% 0 in
03:19 58.8 °F 52.7 °F 29.9 in ENE 0.7 mph 5 mph 80.1% 0 in
03:24 58.8 °F 53.1 °F 29.9 in ENE 2 mph 5 mph 81% 0 in
03:29 58.8 °F 53.1 °F 29.9 in NE 2 mph 5 mph 81.3% 0 in
03:34 58.8 °F 53.2 °F 29.9 in NE 2 mph 4 mph 82% 0 in
03:39 58.6 °F 53.2 °F 29.9 in NE 1.7 mph 4 mph 82% 0 in
03:44 58.6 °F 53.2 °F 29.9 in NE 1.4 mph   82% 0 in
03:49 58.6 °F 53.4 °F 29.9 in ENE 1.4 mph 4.6 mph 82.5% 0 in
03:54 58.8 °F 53.2 °F 29.9 in SO 1.4 mph 5 mph 82% 0 in
03:59 58.8 °F 53.2 °F 29.9 in OSO 1.7 mph 5.4 mph 82% 0 in
04:04 58.6 °F 53.2 °F 29.9 in OSO 2 mph 6 mph 82% 0 in
04:09 58.6 °F 53.2 °F 29.9 in Oeste 2.4 mph 6 mph 82% 0 in
04:14 58.5 °F 53.2 °F 29.9 in Oeste 3.1 mph 5 mph 82.5% 0 in
04:19 58.5 °F 53.2 °F 29.9 in Oeste 2.5 mph 3.5 mph 83% 0 in
04:24 58.6 °F 53.4 °F 29.9 in Oeste 1.4 mph 3.6 mph 83% 0 in
04:29 58.6 °F 53.4 °F 29.9 in Oeste 1.6 mph 4 mph 83% 0 in
04:34 58.6 °F 53.4 °F 29.9 in Oeste 1.8 mph 4 mph 83% 0 in
04:39 58.5 °F 53.4 °F 29.9 in Oeste 1.7 mph 4.7 mph 82.9% 0 in
04:44 58.5 °F 53.1 °F 29.9 in OSO 1.4 mph 5.4 mph 82% 0 in
04:49 58.5 °F 53.1 °F 29.9 in OSO 1.7 mph 6 mph 82% 0 in
04:54 58.5 °F 53.1 °F 29.9 in Oeste 2.4 mph 5.9 mph 82% 0 in
04:59 58.5 °F 53.1 °F 29.9 in Oeste 2.6 mph 6 mph 82% 0 in
05:04 58.5 °F 53.1 °F 29.9 in OSO 2.9 mph 5 mph 82% 0 in
05:09 58.6 °F 53.1 °F 29.9 in Oeste 2.4 mph 4.6 mph 82% 0 in
05:14 58.6 °F 53.2 °F 29.9 in ONO 1.4 mph 5 mph 82% 0 in
05:19 58.6 °F 53.1 °F 29.9 in ONO 1.6 mph 5.2 mph 81.7% 0 in
05:24 58.5 °F 52.5 °F 29.9 in Oeste 2 mph 5 mph 81% 0 in
05:29 58.5 °F 52.5 °F 29.9 in Oeste 1.9 mph 5 mph 81% 0 in
05:34 58.3 °F 52.2 °F 29.9 in OSO 1.8 mph 4 mph 80.3% 0 in
05:39 58.3 °F 52.2 °F 29.9 in SSE 1.9 mph 5 mph 80% 0 in
05:44 57.9 °F 51.8 °F 29.9 in SSE 2 mph 5 mph 80% 0 in
05:49 57.7 °F 51.8 °F 29.9 in SSE 2.2 mph 5 mph 80.8% 0 in
05:54 57.6 °F 51.8 °F 29.9 in SSE 2.4 mph 3.6 mph 81% 0 in
05:59 57.6 °F 51.6 °F 29.9 in Sur 2.2 mph 4.7 mph 80.7% 0 in
06:04 57.6 °F 51.4 °F 29.9 in SO 2 mph 5 mph 80% 0 in
06:09 57.6 °F 51.4 °F 29.9 in SSO 2.2 mph 5 mph 80% 0 in
06:14 57.6 °F 51.8 °F 29.9 in Sur 2.4 mph 6.9 mph 80.8% 0 in
06:19 57.6 °F 51.6 °F 29.9 in Sur 3.2 mph 8.1 mph 81% 0 in
06:24 57.4 °F 51.4 °F 29.9 in Sur 4.7 mph 9.2 mph 81% 0 in
06:29 57.2 °F 51.1 °F 29.9 in SSO 5.3 mph 9.2 mph 80.2% 0 in
06:34 57 °F 50.7 °F 29.9 in SSO 6.4 mph 10.7 mph 79.6% 0 in
06:39 57 °F 50.7 °F 29.9 in SSO 6.6 mph 11 mph 79% 0 in
06:44 57.2 °F 50.5 °F 29.9 in SSO 6.9 mph 10 mph 78.3% 0 in
06:49 57.4 °F 50.5 °F 29.9 in SO 6.1 mph 7.4 mph 78% 0 in
06:54 57.6 °F 50.5 °F 29.9 in SSO 4.7 mph 8.1 mph 77.6% 0 in
06:59 57.6 °F 50.4 °F 29.9 in SSO 4.7 mph 8.5 mph 77% 0 in
07:04 57.6 °F 50 °F 29.9 in SO 4.7 mph 9 mph 76.2% 0 in
07:09 57.6 °F 50 °F 29.9 in SO 4.3 mph 8 mph 76% 0 in
07:14 57.6 °F 50 °F 29.9 in SSO 3.6 mph 5.9 mph 76% 0 in
07:19 57.6 °F 50 °F 29.9 in SSO 3.7 mph 6.9 mph 75.9% 0 in
07:24 57.6 °F 49.6 °F 29.9 in Sur 4 mph 8.1 mph 75% 0 in
07:29 57.4 °F 49.5 °F 29.9 in Sur 4.5 mph 8.1 mph 75% 0 in
07:34 57.4 °F 49.5 °F 29.9 in Sur 5.2 mph 8.1 mph 75% 0 in
07:39 57.2 °F 49.3 °F 29.9 in Sur 5.2 mph 8.1 mph 74.6% 0 in
07:44 57.4 °F 49.3 °F 29.9 in Sur 5.2 mph 8 mph 74.5% 0 in
07:49 57.4 °F 49.3 °F 29.9 in SSO 4.7 mph 6.9 mph 74.2% 0 in
07:54 57.6 °F 49.1 °F 29.9 in SSO 4 mph 7.4 mph 73.3% 0 in
07:59 57.7 °F 48.9 °F 29.9 in SSO 4 mph 7 mph 72.1% 0 in
08:04 58.3 °F 48.7 °F 29.9 in Sur 4 mph 7.4 mph 70.9% 0 in
08:09 58.6 °F 48.9 °F 29.9 in Sur 4.1 mph 7 mph 70.2% 0 in
08:14 58.8 °F 49.1 °F 29.9 in SSE 4.3 mph 7.4 mph 70% 0 in
08:19 59 °F 49.1 °F 29.9 in Sur 4.5 mph 7 mph 69.7% 0 in
08:24 59.2 °F 48.7 °F 29.9 in SSO 4.7 mph 7.4 mph 68.2% 0 in
08:29 59.4 °F 48.9 °F 29.9 in Sur 4.5 mph 7 mph 67.9% 0 in
08:34 59.7 °F 48.6 °F 29.9 in Sur 4 mph 6 mph 66.7% 0 in
08:39 60.1 °F 48.2 °F 29.9 in SO 3.7 mph 5.2 mph 64.9% 0 in
08:44 60.3 °F 47.8 °F 29.9 in SSO 3.1 mph 5.2 mph 63.3% 0 in
08:49 60.6 °F 47.3 °F 29.9 in Sur 3.1 mph 5 mph 61.4% 0 in
08:54 60.8 °F 47.5 °F 29.9 in SSE 3.1 mph 6.2 mph 61.3% 0 in
08:59 61 °F 47.5 °F 29.9 in Sur 3.5 mph 6.9 mph 61.2% 0 in
09:04 61 °F 47.8 °F 29.9 in SSE 4 mph 7.4 mph 61.8% 0 in
09:09 61.2 °F 47.1 °F 29.9 in SSE 4.5 mph 8.1 mph 59.7% 0 in
09:14 61.5 °F 46.9 °F 29.9 in SSO 5.2 mph 8 mph 58.9% 0 in
09:19 61.9 °F 47.5 °F 29.9 in SSE 4.4 mph 6 mph 58.9% 0 in
09:24 62.2 °F 47.1 °F 29.9 in OSO 3.1 mph 4.7 mph 57.6% 0 in
09:29 62.4 °F 46.9 °F 29.9 in ONO 2.9 mph 5 mph 56.8% 0 in
09:34 62.8 °F 47.1 °F 29.9 in NO 2.4 mph 5 mph 56.6% 0 in
09:39 63.1 °F 47.1 °F 29.9 in NO 2.2 mph 4 mph 56% 0 in
09:44 63.7 °F 47.3 °F 29.9 in NNO 1.8 mph 3.6 mph 55.3% 0 in
09:49 64.4 °F 46.9 °F 29.9 in NNO 1.9 mph 6.2 mph 53.2% 0 in
09:54 64.8 °F 47.1 °F 29.9 in NNO 2 mph 6 mph 52.8% 0 in
09:59 64.9 °F 47.1 °F 29.9 in North 2.4 mph 5 mph 52.4% 0 in
10:04 65.5 °F 47.5 °F 29.9 in North 2.9 mph 5.8 mph 52.2% 0 in
10:09 65.7 °F 47.7 °F 29.9 in North 2.9 mph 6.9 mph 52.2% 0 in
10:14 66 °F 47.3 °F 29.9 in NNE 2.9 mph 10.2 mph 51% 0 in
10:19 66 °F 47.5 °F 29.9 in NE 3.7 mph 10 mph 51.2% 0 in
10:24 66.4 °F 47.5 °F 29.9 in NNE 5.2 mph 10.4 mph 50.4% 0 in
10:29 66.4 °F 47.1 °F 29.9 in NE 5.7 mph 14 mph 49.9% 0 in
10:34 66.6 °F 47.1 °F 29.9 in NE 6.4 mph 14 mph 49.8% 0 in
10:39 66.7 °F 47.5 °F 29.9 in NE 6.8 mph 14 mph 50% 0 in
10:44 66.7 °F 48 °F 29.9 in NE 7.6 mph 14 mph 50.8% 0 in
10:49 66.9 °F 48.2 °F 29.9 in NE 7.6 mph 13.8 mph 51% 0 in
10:54 67.3 °F 48.6 °F 29.9 in ENE 7.6 mph 14 mph 51.4% 0 in
10:59 67.6 °F 49.5 °F 29.9 in ENE 7.5 mph 13.8 mph 52.2% 0 in
11:04 68.2 °F 49.8 °F 29.9 in ENE 7.4 mph 14 mph 52% 0 in
11:09 68 °F 50.4 °F 29.9 in NE 7.6 mph 15 mph 53.2% 0 in
11:14 67.8 °F 50.5 °F 29.9 in NE 8.1 mph 16.1 mph 54% 0 in
11:19 68 °F 49.5 °F 29.9 in NE 8 mph 17.8 mph 51.7% 0 in
11:24 68.2 °F 48.6 °F 29.9 in NE 7.6 mph 18.4 mph 49.5% 0 in
11:29 68.4 °F 47.8 °F 29.9 in NE 8.4 mph 16 mph 47.8% 0 in
11:34 68.9 °F 47.7 °F 29.9 in NE 10 mph 15 mph 46.9% 0 in
11:39 69.1 °F 47.5 °F 29.9 in NE 9.9 mph 15 mph 46% 0 in
11:44 69.4 °F 47.8 °F 29.9 in ENE 9.7 mph 15 mph 46.2% 0 in
11:49 69.4 °F 47.8 °F 29.9 in NE 9.3 mph 15 mph 46% 0 in
11:54 69.6 °F 47.8 °F 29.9 in NE 8.5 mph 16.8 mph 45.9% 0 in
11:59 69.6 °F 47.3 °F 29.9 in ENE 8.8 mph 17.3 mph 45.1% 0 in
12:04 69.4 °F 47.3 °F 29.9 in NE 9.2 mph 17 mph 45% 0 in
12:09 70 °F 47.3 °F 29.9 in NE 8.9 mph 17.3 mph 44.4% 0 in
12:14 70.2 °F 46.9 °F 29.9 in ENE 8.5 mph 17 mph 43.5% 0 in
12:19 70.3 °F 47.3 °F 29.9 in NE 8.6 mph 17.5 mph 43.8% 0 in
12:24 70.3 °F 47.3 °F 29.9 in NE 8.7 mph 17 mph 44% 0 in
12:29 70.2 °F 47.3 °F 29.9 in NE 8.7 mph 15 mph 44% 0 in
12:34 70.2 °F 47.3 °F 29.9 in NE 8.7 mph 15 mph 44.3% 0 in
12:39 70.2 °F 47.5 °F 29.9 in NE 9.1 mph 15 mph 44.4% 0 in
12:44 70 °F 47.3 °F 29.9 in NE 9.7 mph 16.1 mph 44.3% 0 in
12:49 70.2 °F 47.5 °F 29.9 in NNE 9.5 mph 17.5 mph 44.4% 0 in
12:54 70.5 °F 47.1 °F 29.9 in NNE 9.2 mph 17.3 mph 43.5% 0 in
12:59 70.7 °F 47.1 °F 29.9 in NNE 8.9 mph 17 mph 43% 0 in
13:04 70.7 °F 46.6 °F 29.9 in NE 8.7 mph 17 mph 42.1% 0 in
13:09 70.7 °F 46.6 °F 29.9 in NE 9.1 mph 17.3 mph 42% 0 in
13:14 71.1 °F 46.4 °F 29.9 in NE 9.7 mph 17.5 mph 41.6% 0 in
13:19 71.1 °F 46 °F 29.9 in NE 9.7 mph 18.4 mph 40.9% 0 in
13:24 70.9 °F 46 °F 29.9 in NE 9.7 mph 18 mph 41% 0 in
13:29 70.7 °F 45.7 °F 29.9 in NE 10.3 mph 18.4 mph 40.7% 0 in
13:34 71.2 °F 46.6 °F 29.9 in NE 11.2 mph 18 mph 41.4% 0 in
13:39 71.4 °F 45.9 °F 29.9 in NE 10.3 mph 18.4 mph 40% 0 in
13:44 71.6 °F 46.2 °F 29.9 in ENE 8.5 mph 18 mph 40.5% 0 in
13:49 71.6 °F 46 °F 29.9 in NE 8.9 mph 16 mph 40% 0 in
13:54 71.6 °F 45.9 °F 29.9 in NE 9.7 mph 16.8 mph 39.8% 0 in
13:59 71.6 °F 46 °F 29.9 in NE 9.9 mph 18.4 mph 40.2% 0 in
14:04 72 °F 46.2 °F 29.9 in ENE 10.2 mph 21.3 mph 39.8% 0 in
14:09 72 °F 45.9 °F 29.9 in NE 9.8 mph 21 mph 39.2% 0 in
14:14 71.4 °F 45.7 °F 29.9 in NE 9.2 mph 17 mph 39.6% 0 in
14:19 71.8 °F 45 °F 29.9 in NE 9 mph 15.2 mph 38.3% 0 in
14:24 72 °F 45.7 °F 29.9 in NE 8.7 mph 18.4 mph 39% 0 in
14:29 72 °F 45.5 °F 29.9 in ENE 9.1 mph 18 mph 38.8% 0 in
14:34 72.1 °F 46 °F 29.9 in NE 9.7 mph 15.2 mph 39.5% 0 in
14:39 72.5 °F 46.2 °F 29.9 in NE 9.3 mph 19 mph 39.1% 0 in
14:44 72.7 °F 45.5 °F 29.9 in NE 8.5 mph 19 mph 37.9% 0 in
14:49 72.3 °F 45.3 °F 29.9 in ENE 9.6 mph 19 mph 38.1% 0 in
14:54 72.3 °F 45.5 °F 29.9 in ENE 11.4 mph 16.1 mph 38.3% 0 in
14:59 72.5 °F 45.5 °F 29.9 in NE 9.3 mph 16.1 mph 38% 0 in
15:04 72.3 °F 45.3 °F 29.9 in NE 6.9 mph 16.1 mph 38% 0 in
15:09 72.3 °F 45.3 °F 29.9 in ENE 7.6 mph 16 mph 38% 0 in
15:14 72.1 °F 45.1 °F 29.9 in NE 8.7 mph 16.3 mph 37.9% 0 in
15:19 72 °F 44.8 °F 29.9 in NE 8.7 mph 16 mph 37.8% 0 in
15:24 72.1 °F 45.5 °F 29.9 in ENE 8.7 mph 17 mph 38.5% 0 in
15:29 72.1 °F 45 °F 29.9 in ENE 8.6 mph 17 mph 37.7% 0 in
15:34 72 °F 45 °F 29.9 in ENE 8.5 mph 15 mph 38% 0 in
15:39 71.8 °F 44.2 °F 29.9 in ENE 8.8 mph 16.1 mph 37.4% 0 in
15:44 71.2 °F 44.2 °F 29.9 in ENE 9.2 mph 17.3 mph 37.7% 0 in
15:49 71.2 °F 44.4 °F 29.9 in ENE 9.2 mph 17 mph 38.1% 0 in
15:54 71.2 °F 44.1 °F 29.9 in ENE 9.2 mph 16.3 mph 37.5% 0 in
15:59 71.4 °F 44.4 °F 29.9 in ENE 8.4 mph 16 mph 37.9% 0 in
16:04 71.2 °F 44.4 °F 29.9 in NE 7.6 mph 17.8 mph 38% 0 in
16:09 70.9 °F 44.4 °F 29.9 in NE 8.4 mph 18.4 mph 38.6% 0 in
16:14 70.7 °F 44.6 °F 29.9 in NE 10 mph 18 mph 39.1% 0 in
16:19 70.3 °F 44.2 °F 29.9 in NE 9.7 mph 16.1 mph 39% 0 in
16:24 70.3 °F 43.7 °F 29.9 in ENE 9.2 mph 16.3 mph 38.3% 0 in
16:29 70.3 °F 44.1 °F 29.9 in NE 9.4 mph 16.1 mph 38.9% 0 in
16:34 70.3 °F 43.5 °F 29.9 in NE 9.7 mph 16 mph 38% 0 in
16:39 70.3 °F 43.7 °F 29.9 in ENE 8.9 mph 15 mph 38.4% 0 in
16:44 70.3 °F 43.5 °F 29.9 in NE 7.4 mph 15 mph 37.9% 0 in
16:49 70.2 °F 44.2 °F 29.9 in ENE 7.6 mph 15.2 mph 39.6% 0 in
16:54 69.6 °F 44.2 °F 29.9 in ENE 8.1 mph 15.2 mph 40% 0 in
16:59 69.8 °F 44.6 °F 29.9 in Este 8.1 mph 15.2 mph 40.3% 0 in
17:04 70.2 °F 44.6 °F 29.9 in NE 8.1 mph 16.1 mph 39.8% 0 in
17:09 70.2 °F 44.4 °F 29.9 in ENE 8.5 mph 16.1 mph 39.7% 0 in
17:14 70 °F 44.1 °F 29.9 in ENE 9.2 mph 17.3 mph 39.2% 0 in
17:19 70 °F 43.9 °F 29.9 in ENE 9 mph 17 mph 39.1% 0 in
17:24 69.8 °F 44.1 °F 29.9 in ENE 8.7 mph 17.3 mph 39.4% 0 in
17:29 69.8 °F 44.4 °F 29.9 in ENE 9.1 mph 17 mph 40% 0 in
17:34 70 °F 44.4 °F 29.9 in ENE 9.7 mph 19.2 mph 40% 0 in
17:39 70.2 °F 45.5 °F 29.9 in Este 9.7 mph 20 mph 41.3% 0 in
17:44 69.8 °F 45.7 °F 29.9 in ENE 9.7 mph 20.4 mph 42% 0 in
17:49 69.6 °F 45 °F 29.9 in Este 10.5 mph 21 mph 41% 0 in
17:54 69.8 °F 44.2 °F 29.9 in ENE 11.8 mph 21 mph 40% 0 in
17:59 70 °F 44.2 °F 29.9 in Este 10.9 mph 20.8 mph 39.7% 0 in
18:04 69.4 °F 44.1 °F 29.9 in ENE 10 mph 21 mph 39.8% 0 in
18:09 69.4 °F 44.6 °F 29.9 in ENE 9.8 mph 19 mph 40.6% 0 in
18:14 69.3 °F 44.1 °F 29.9 in NE 9.2 mph 20.8 mph 40.1% 0 in
18:19 68.9 °F 43.7 °F 29.9 in ENE 9.4 mph 21 mph 40.2% 0 in
18:24 68.5 °F 44.4 °F 29.9 in NE 10 mph 18.4 mph 41.8% 0 in
18:29 68.2 °F 44.1 °F 29.9 in NE 9.7 mph 18 mph 41.7% 0 in
18:34 68.2 °F 44.8 °F 29.9 in ENE 9.2 mph 17.3 mph 43% 0 in
18:39 68 °F 45 °F 29.9 in ENE 9.2 mph 17 mph 43.6% 0 in
18:44 68.2 °F 45.3 °F 29.9 in ENE 9.2 mph 15.2 mph 44% 0 in
18:49 68.2 °F 46.2 °F 29.9 in NE 9 mph 16.1 mph 45.4% 0 in
18:54 68.4 °F 46.4 °F 29.9 in NE 8.7 mph 20.1 mph 45.3% 0 in
18:59 68 °F 46.6 °F 29.9 in NE 9.3 mph 21 mph 46.2% 0 in
19:04 67.6 °F 46.9 °F 29.9 in NE 10 mph 19 mph 47.4% 0 in
19:09 67.6 °F 46.8 °F 29.9 in NE 10.1 mph 18.4 mph 47.1% 0 in
19:14 67.6 °F 46.8 °F 29.9 in NE 10.2 mph 16.1 mph 47.2% 0 in
19:19 67.5 °F 46.9 °F 29.9 in NE 9.8 mph 16 mph 47.8% 0 in
19:24 67.5 °F 46.8 °F 29.9 in ENE 9.2 mph 16.3 mph 47.3% 0 in
19:29 67.5 °F 46.8 °F 29.9 in ENE 8.8 mph 16 mph 47.2% 0 in
19:34 67.5 °F 46.9 °F 29.9 in ENE 8.1 mph 15 mph 47.6% 0 in
19:39 67.3 °F 46.8 °F 29.9 in NE 8.3 mph 15 mph 47.7% 0 in
19:44 67.1 °F 46.8 °F 29.9 in NE 8.7 mph 15.2 mph 48.2% 0 in
19:49 66.9 °F 47.1 °F 29.9 in NE 8.6 mph 16.1 mph 49% 0 in
19:54 66.6 °F 46.8 °F 29.9 in NE 8.5 mph 17.3 mph 49% 0 in
19:59 66.4 °F 46.9 °F 29.9 in NE 8.8 mph 17.3 mph 49.6% 0 in
20:04 66 °F 46.8 °F 29.9 in NE 9.2 mph 17 mph 50% 0 in
20:09 65.8 °F 46.9 °F 29.9 in NE 9.5 mph 16.1 mph 50.3% 0 in
20:14 65.8 °F 47.1 °F 29.9 in NE 10 mph 16.1 mph 50.8% 0 in
20:19 65.7 °F 47.1 °F 29.9 in NE 9.4 mph 16 mph 51.1% 0 in
20:24 65.7 °F 47.5 °F 29.9 in ENE 8.5 mph 14 mph 52% 0 in
20:29 65.5 °F 47.7 °F 29.9 in ENE 7.7 mph 12 mph 52.4% 0 in
20:34 65.3 °F 47.7 °F 29.9 in NE 6.2 mph 11.5 mph 53% 0 in
20:39 65.1 °F 47.8 °F 29.9 in NE 6.3 mph 12 mph 53.4% 0 in
20:44 64.9 °F 48.2 °F 29.9 in NE 6.4 mph 12 mph 54.7% 0 in
20:49 64.8 °F 49.1 °F 29.9 in NE 6.8 mph 13 mph 56.6% 0 in
20:54 64.6 °F 49.3 °F 29.9 in NE 7.4 mph 13 mph 57.4% 0 in
20:59 64.2 °F 49.6 °F 29.9 in NE 6.7 mph 9.7 mph 58.8% 0 in
21:04 64 °F 50 °F 29.9 in NE 5.9 mph 10.4 mph 60% 0 in
21:09 64 °F 50.2 °F 29.9 in NE 6.1 mph 13 mph 60.7% 0 in
21:14 63.9 °F 50.2 °F 29.9 in NE 6.4 mph 13 mph 61.3% 0 in
21:19 63.7 °F 50.5 °F 29.9 in NE 6.8 mph 12 mph 62.1% 0 in
21:24 63.5 °F 50.9 °F 29.9 in NE 7.6 mph 12 mph 63.2% 0 in
21:29 63.3 °F 51.1 °F 29.9 in NE 7 mph 11.8 mph 64.4% 0 in
21:34 63.3 °F 51.3 °F 29.9 in NE 5.9 mph 12 mph 65% 0 in
21:39 63.1 °F 51.4 °F 29.9 in NE 6.3 mph 13 mph 66% 0 in
21:44 63 °F 51.6 °F 29.9 in NE 6.9 mph 13 mph 66.8% 0 in
21:49 62.6 °F 51.8 °F 29.9 in NE 7.1 mph 13 mph 67.8% 0 in
21:54 62.4 °F 52 °F 29.9 in NE 7.4 mph 13 mph 68.6% 0 in
21:59 62.2 °F 52 °F 29.9 in NE 6.7 mph 11 mph 69% 0 in
22:04 62.2 °F 52 °F 29.9 in NE 5.9 mph 8.1 mph 69% 0 in
22:09 62.2 °F 52 °F 29.9 in NE 5.5 mph 8.5 mph 69.2% 0 in
22:14 62.1 °F 52.2 °F 29.9 in NE 4.7 mph 9 mph 70% 0 in
22:19 62.1 °F 52.2 °F 29.9 in ENE 4.7 mph 8.1 mph 70% 0 in
22:24 61.9 °F 52 °F 29.9 in ENE 4.7 mph 8 mph 70% 0 in
22:29 61.7 °F 52.2 °F 29.9 in NE 4.3 mph 6.9 mph 70.9% 0 in
22:34 61.5 °F 52.3 °F 29.9 in NE 3.6 mph 7 mph 71.8% 0 in
22:39 61.3 °F 52.5 °F 29.9 in NE 3.9 mph 8.1 mph 72.5% 0 in
22:44 61.2 °F 52.5 °F 29.9 in NE 4.3 mph 8.1 mph 73.3% 0 in
22:49 61.2 °F 52.7 °F 29.9 in NE 4.7 mph 7.4 mph 74% 0 in
22:54 61 °F 52.9 °F 29.9 in NE 5.2 mph 7.6 mph 74.5% 0 in
22:59 61 °F 52.9 °F 29.9 in NE 5 mph 8 mph 75% 0 in
23:04 60.8 °F 53.2 °F 29.9 in NNE 4.7 mph 7 mph 76% 0 in
23:09 60.6 °F 53.1 °F 29.9 in NE 4.1 mph 7 mph 76% 0 in
23:14 60.6 °F 53.1 °F 29.9 in NE 3.1 mph 6 mph 76.3% 0 in
23:19 60.6 °F 53.4 °F 29.9 in NE 3 mph 6 mph 77% 0 in
23:24 60.6 °F 53.6 °F 29.9 in NNE 2.9 mph 5 mph 77.8% 0 in
23:29 60.6 °F 53.8 °F 29.9 in ENE 2.5 mph 5 mph 78% 0 in
23:34 60.6 °F 53.8 °F 29.9 in ENE 1.8 mph 3 mph 78% 0 in
23:39 60.6 °F 53.8 °F 29.9 in ENE 1.2 mph 2.3 mph 78% 0 in
23:44 60.6 °F 54 °F 29.9 in Calm   2 mph 78.7% 0 in
23:49 60.6 °F 54.1 °F 29.9 in Calm   4 mph 78.9% 0 in
23:54 60.6 °F 53.8 °F 29.9 in Calm   5 mph 78% 0 in
23:59 60.4 °F 53.6 °F 29.9 in NO 0.8 mph 4 mph 78% 0 in
Murcia-Puente Tocinos, España
Compliments of Weather Underground - 3 mb

La estación de MeteoMurcia.com, publica sus datos en los siguientes proyectos:

Weather Underground PWS IMURCIAP2 Meteoclimatic www.awekas.at

W3Counter
Web Analytics